Etusivu
METAR-TAF:

METAR-TAF

Lentoasemat :

Hohn, Saksa

Leveyspiiri: 54-19N, Pituuspiiri: 009-32E, korkeus merenpinnasta: 12 m

Tämänhetkinen sää

Tämä raportti tehtiin 34 minuuttia sitten, kello 17.20 UTC
Tuuli 3 kn idästä/koillisesta
Lämpötila 1°C
Kosteus 93%
Ilmanpaine 1022 hPa
Näkyvyys: 0100 m
Muutamia pilviä 5000 ft:n korkeudessa
sumua

METAR: ETNH 271720Z 07003KT 0100 FG FEW050 01/00 Q1022 RED

Aika: 18:54 (17:54 UTC)

Sääennuste

Tämä raportti tehtiin 54 minuuttia sitten, kello 17.00 UTC
Ennuste voimassa 27. päivästä klo 18 UTC - 28. päivään klo 06 UTC
Tuuli 3 kn idästä
Näkyvyys: 0300 m
Hajonneita pilviä 100 ft:n korkeudessa
sumua
Ajoittain
27. päivästä klo 18 UTC - 27. päivään klo 20 UTC
Tuuli 5 kn idästä
Näkyvyys: 3000 m
Hajanaisia pilviä 200 ft:n korkeudessa
sumuhattaroita

TAF: ETNH 271700Z 2718/2806 09003KT 0300 FG BKN001 TEMPO 2718/2720 09005KT 3000 BCFG SCT002 BY ETGL

Säähavainnot ja -ennusteet yli 4000 lentoasemalta (METAR- ja TAF-raportit).

Käytössä olevat sääasemat on merkitty karttaan keltaisilla ja punaisilla pisteillä.

Aseta hiiri pisteen päälle nähdäksesi sääaseman nimen.

Klikkaa sitten nähdäksesi säähavainnot ja -ennusteet.

Kartan vaihtaminen: klikkaa mustalla rastilla varustettuja vihreitä pisteitä, niin voit zoomata sisään; viivalla varustettua vihreää pistettä, niin voit zoomata ulos tai vihreitä nuolia, niin pääset viereisille kartoille.


METAR-TAF: